sensor_id;sensor_type;location;lat;lon;timestamp;temperature;humidity
16102;DHT22;56411;52.964;10.540;2023-12-20T00:02:10;5.50;99.90
16102;DHT22;56411;52.964;10.540;2023-12-20T00:04:37;5.50;99.90
16102;DHT22;56411;52.964;10.540;2023-12-20T00:07:04;5.40;99.90
16102;DHT22;56411;52.964;10.540;2023-12-20T00:09:31;5.40;99.90
16102;DHT22;56411;52.964;10.540;2023-12-20T00:11:58;5.40;99.90
16102;DHT22;56411;52.964;10.540;2023-12-20T00:14:25;5.40;99.90
16102;DHT22;56411;52.964;10.540;2023-12-20T00:16:54;5.40;99.90
16102;DHT22;56411;52.964;10.540;2023-12-20T00:19:21;5.40;99.90
16102;DHT22;56411;52.964;10.540;2023-12-20T00:21:48;5.40;99.90
16102;DHT22;56411;52.964;10.540;2023-12-20T00:24:15;5.40;99.90
16102;DHT22;56411;52.964;10.540;2023-12-20T00:26:42;5.40;99.90
16102;DHT22;56411;52.964;10.540;2023-12-20T00:29:09;5.40;99.90
16102;DHT22;56411;52.964;10.540;2023-12-20T00:31:36;5.50;99.90
16102;DHT22;56411;52.964;10.540;2023-12-20T00:34:05;5.50;99.90
16102;DHT22;56411;52.964;10.540;2023-12-20T00:36:32;5.50;99.90
16102;DHT22;56411;52.964;10.540;2023-12-20T00:38:59;5.50;99.90
16102;DHT22;56411;52.964;10.540;2023-12-20T00:41:26;5.50;99.90
16102;DHT22;56411;52.964;10.540;2023-12-20T00:43:53;5.50;99.90
16102;DHT22;56411;52.964;10.540;2023-12-20T00:46:20;5.40;99.90
16102;DHT22;56411;52.964;10.540;2023-12-20T00:48:48;5.40;99.90
16102;DHT22;56411;52.964;10.540;2023-12-20T00:51:16;5.40;99.90
16102;DHT22;56411;52.964;10.540;2023-12-20T00:53:43;5.40;99.90
16102;DHT22;56411;52.964;10.540;2023-12-20T00:56:11;5.30;99.90
16102;DHT22;56411;52.964;10.540;2023-12-20T00:58:38;5.30;99.90
16102;DHT22;56411;52.964;10.540;2023-12-20T01:01:05;5.30;99.90
16102;DHT22;56411;52.964;10.540;2023-12-20T01:03:32;5.30;99.90
16102;DHT22;56411;52.964;10.540;2023-12-20T01:09:23;5.20;99.90
16102;DHT22;56411;52.964;10.540;2023-12-20T01:11:52;5.20;99.90
16102;DHT22;56411;52.964;10.540;2023-12-20T01:14:19;5.10;99.90
16102;DHT22;56411;52.964;10.540;2023-12-20T01:16:46;5.10;99.90
16102;DHT22;56411;52.964;10.540;2023-12-20T01:19:13;5.10;99.90
16102;DHT22;56411;52.964;10.540;2023-12-20T01:21:40;5.10;99.90
16102;DHT22;56411;52.964;10.540;2023-12-20T01:24:07;5.10;99.90
16102;DHT22;56411;52.964;10.540;2023-12-20T01:26:36;5.00;99.90
16102;DHT22;56411;52.964;10.540;2023-12-20T01:29:03;5.00;99.90
16102;DHT22;56411;52.964;10.540;2023-12-20T01:31:30;4.90;99.90
16102;DHT22;56411;52.964;10.540;2023-12-20T01:33:57;4.90;99.90
16102;DHT22;56411;52.964;10.540;2023-12-20T01:36:24;4.90;99.90
16102;DHT22;56411;52.964;10.540;2023-12-20T01:38:52;4.90;99.90
16102;DHT22;56411;52.964;10.540;2023-12-20T01:41:19;4.90;99.90
16102;DHT22;56411;52.964;10.540;2023-12-20T01:43:47;4.90;99.90
16102;DHT22;56411;52.964;10.540;2023-12-20T01:46:14;4.90;99.90
16102;DHT22;56411;52.964;10.540;2023-12-20T01:48:42;4.80;99.90
16102;DHT22;56411;52.964;10.540;2023-12-20T01:51:09;4.80;99.90
16102;DHT22;56411;52.964;10.540;2023-12-20T01:53:38;4.80;99.90
16102;DHT22;56411;52.964;10.540;2023-12-20T01:56:07;4.80;99.90
16102;DHT22;56411;52.964;10.540;2023-12-20T01:58:35;4.90;99.90
16102;DHT22;56411;52.964;10.540;2023-12-20T02:01:05;4.90;99.90
16102;DHT22;56411;52.964;10.540;2023-12-20T02:03:32;5.00;99.90
16102;DHT22;56411;52.964;10.540;2023-12-20T02:06:02;5.10;99.90
16102;DHT22;56411;52.964;10.540;2023-12-20T02:08:29;5.10;99.90
16102;DHT22;56411;52.964;10.540;2023-12-20T02:10:56;5.00;99.90
16102;DHT22;56411;52.964;10.540;2023-12-20T02:13:23;5.00;99.90
16102;DHT22;56411;52.964;10.540;2023-12-20T02:15:52;5.00;99.90
16102;DHT22;56411;52.964;10.540;2023-12-20T02:18:20;5.10;99.90
16102;DHT22;56411;52.964;10.540;2023-12-20T02:20:48;5.00;99.90
16102;DHT22;56411;52.964;10.540;2023-12-20T02:23:16;5.10;99.90
16102;DHT22;56411;52.964;10.540;2023-12-20T02:25:43;5.10;99.90
16102;DHT22;56411;52.964;10.540;2023-12-20T02:28:10;5.00;99.90
16102;DHT22;56411;52.964;10.540;2023-12-20T02:30:37;5.00;99.90
16102;DHT22;56411;52.964;10.540;2023-12-20T02:33:07;5.00;99.90
16102;DHT22;56411;52.964;10.540;2023-12-20T02:35:37;4.90;99.90
16102;DHT22;56411;52.964;10.540;2023-12-20T02:38:04;4.90;99.90
16102;DHT22;56411;52.964;10.540;2023-12-20T02:40:32;4.80;99.90
16102;DHT22;56411;52.964;10.540;2023-12-20T02:43:00;4.90;99.90
16102;DHT22;56411;52.964;10.540;2023-12-20T02:45:27;5.00;99.90
16102;DHT22;56411;52.964;10.540;2023-12-20T02:47:54;5.00;99.90
16102;DHT22;56411;52.964;10.540;2023-12-20T02:50:21;5.00;99.90
16102;DHT22;56411;52.964;10.540;2023-12-20T02:52:48;5.10;99.90
16102;DHT22;56411;52.964;10.540;2023-12-20T02:55:15;5.20;99.90
16102;DHT22;56411;52.964;10.540;2023-12-20T02:57:44;5.10;99.90
16102;DHT22;56411;52.964;10.540;2023-12-20T03:00:11;5.10;99.90
16102;DHT22;56411;52.964;10.540;2023-12-20T03:02:38;5.10;99.90
16102;DHT22;56411;52.964;10.540;2023-12-20T03:05:06;5.10;99.90
16102;DHT22;56411;52.964;10.540;2023-12-20T03:07:33;5.10;99.90
16102;DHT22;56411;52.964;10.540;2023-12-20T03:10:00;5.10;99.90
16102;DHT22;56411;52.964;10.540;2023-12-20T03:12:28;5.10;99.90
16102;DHT22;56411;52.964;10.540;2023-12-20T03:14:57;5.20;99.90
16102;DHT22;56411;52.964;10.540;2023-12-20T03:17:24;5.20;99.90
16102;DHT22;56411;52.964;10.540;2023-12-20T03:19:50;5.10;99.90
16102;DHT22;56411;52.964;10.540;2023-12-20T03:22:18;5.20;99.90
16102;DHT22;56411;52.964;10.540;2023-12-20T03:24:45;5.10;99.90
16102;DHT22;56411;52.964;10.540;2023-12-20T03:27:12;5.10;99.90
16102;DHT22;56411;52.964;10.540;2023-12-20T03:29:39;5.00;99.90
16102;DHT22;56411;52.964;10.540;2023-12-20T03:32:08;5.00;99.90
16102;DHT22;56411;52.964;10.540;2023-12-20T03:34:35;4.90;99.90
16102;DHT22;56411;52.964;10.540;2023-12-20T03:37:02;4.90;99.90
16102;DHT22;56411;52.964;10.540;2023-12-20T03:39:29;4.80;99.90
16102;DHT22;56411;52.964;10.540;2023-12-20T03:41:56;4.80;99.90
16102;DHT22;56411;52.964;10.540;2023-12-20T03:44:23;4.70;99.90
16102;DHT22;56411;52.964;10.540;2023-12-20T03:46:50;4.70;99.90
16102;DHT22;56411;52.964;10.540;2023-12-20T03:49:19;4.70;99.90
16102;DHT22;56411;52.964;10.540;2023-12-20T03:51:46;4.70;99.90
16102;DHT22;56411;52.964;10.540;2023-12-20T03:54:12;4.60;99.90
16102;DHT22;56411;52.964;10.540;2023-12-20T03:56:40;4.60;99.90
16102;DHT22;56411;52.964;10.540;2023-12-20T03:59:07;4.50;99.90
16102;DHT22;56411;52.964;10.540;2023-12-20T04:01:34;4.60;99.90
16102;DHT22;56411;52.964;10.540;2023-12-20T04:04:01;4.60;99.90
16102;DHT22;56411;52.964;10.540;2023-12-20T04:06:30;4.60;99.90
16102;DHT22;56411;52.964;10.540;2023-12-20T04:08:57;4.60;99.90
16102;DHT22;56411;52.964;10.540;2023-12-20T04:11:24;4.70;99.90
16102;DHT22;56411;52.964;10.540;2023-12-20T04:13:51;4.60;99.90
16102;DHT22;56411;52.964;10.540;2023-12-20T04:16:18;4.60;99.90
16102;DHT22;56411;52.964;10.540;2023-12-20T04:18:45;4.70;99.90
16102;DHT22;56411;52.964;10.540;2023-12-20T04:21:12;4.70;99.90
16102;DHT22;56411;52.964;10.540;2023-12-20T04:23:40;4.80;99.90
16102;DHT22;56411;52.964;10.540;2023-12-20T04:26:07;4.80;99.90
16102;DHT22;56411;52.964;10.540;2023-12-20T04:28:34;4.80;99.90
16102;DHT22;56411;52.964;10.540;2023-12-20T04:31:01;4.80;99.90
16102;DHT22;56411;52.964;10.540;2023-12-20T04:33:28;4.80;99.90
16102;DHT22;56411;52.964;10.540;2023-12-20T04:35:55;4.80;99.90
16102;DHT22;56411;52.964;10.540;2023-12-20T04:38:23;4.80;99.90
16102;DHT22;56411;52.964;10.540;2023-12-20T04:40:51;4.80;99.90
16102;DHT22;56411;52.964;10.540;2023-12-20T04:43:18;4.90;99.90
16102;DHT22;56411;52.964;10.540;2023-12-20T04:45:45;4.90;99.90
16102;DHT22;56411;52.964;10.540;2023-12-20T04:48:12;4.90;99.90
16102;DHT22;56411;52.964;10.540;2023-12-20T04:50:39;4.90;99.90
16102;DHT22;56411;52.964;10.540;2023-12-20T04:53:06;5.00;99.90
16102;DHT22;56411;52.964;10.540;2023-12-20T04:55:34;5.00;99.90
16102;DHT22;56411;52.964;10.540;2023-12-20T04:58:02;5.00;99.90
16102;DHT22;56411;52.964;10.540;2023-12-20T05:00:29;5.10;99.90
16102;DHT22;56411;52.964;10.540;2023-12-20T05:02:57;5.10;99.90
16102;DHT22;56411;52.964;10.540;2023-12-20T05:05:24;5.10;99.90
16102;DHT22;56411;52.964;10.540;2023-12-20T05:07:51;5.10;99.90
16102;DHT22;56411;52.964;10.540;2023-12-20T05:10:18;5.20;99.90
16102;DHT22;56411;52.964;10.540;2023-12-20T05:12:45;5.20;99.90
16102;DHT22;56411;52.964;10.540;2023-12-20T05:15:14;5.20;99.90
16102;DHT22;56411;52.964;10.540;2023-12-20T05:17:41;5.20;99.90
16102;DHT22;56411;52.964;10.540;2023-12-20T05:20:09;5.20;99.90
16102;DHT22;56411;52.964;10.540;2023-12-20T05:22:36;5.20;99.90
16102;DHT22;56411;52.964;10.540;2023-12-20T05:25:04;5.20;99.90
16102;DHT22;56411;52.964;10.540;2023-12-20T05:27:31;5.20;99.90
16102;DHT22;56411;52.964;10.540;2023-12-20T05:29:58;5.30;99.90
16102;DHT22;56411;52.964;10.540;2023-12-20T05:32:27;5.20;99.90
16102;DHT22;56411;52.964;10.540;2023-12-20T05:34:54;5.30;99.90
16102;DHT22;56411;52.964;10.540;2023-12-20T05:37:21;5.20;99.90
16102;DHT22;56411;52.964;10.540;2023-12-20T05:39:48;5.30;99.90
16102;DHT22;56411;52.964;10.540;2023-12-20T05:42:15;5.30;99.90
16102;DHT22;56411;52.964;10.540;2023-12-20T05:44:42;5.30;99.90
16102;DHT22;56411;52.964;10.540;2023-12-20T05:47:09;5.30;99.90
16102;DHT22;56411;52.964;10.540;2023-12-20T05:49:38;5.30;99.90
16102;DHT22;56411;52.964;10.540;2023-12-20T05:52:05;5.30;99.90
16102;DHT22;56411;52.964;10.540;2023-12-20T05:54:32;5.30;99.90
16102;DHT22;56411;52.964;10.540;2023-12-20T05:56:59;5.30;99.90
16102;DHT22;56411;52.964;10.540;2023-12-20T05:59:27;5.30;99.90
16102;DHT22;56411;52.964;10.540;2023-12-20T06:01:56;5.30;99.90
16102;DHT22;56411;52.964;10.540;2023-12-20T06:04:23;5.30;99.90
16102;DHT22;56411;52.964;10.540;2023-12-20T06:06:51;5.20;99.90
16102;DHT22;56411;52.964;10.540;2023-12-20T06:09:19;5.20;99.90
16102;DHT22;56411;52.964;10.540;2023-12-20T06:11:46;5.20;99.90
16102;DHT22;56411;52.964;10.540;2023-12-20T06:14:13;5.30;99.90
16102;DHT22;56411;52.964;10.540;2023-12-20T06:16:40;5.30;99.90
16102;DHT22;56411;52.964;10.540;2023-12-20T06:19:07;5.30;99.90
16102;DHT22;56411;52.964;10.540;2023-12-20T06:21:34;5.40;99.90
16102;DHT22;56411;52.964;10.540;2023-12-20T06:24:03;5.40;99.90
16102;DHT22;56411;52.964;10.540;2023-12-20T06:26:30;5.40;99.90
16102;DHT22;56411;52.964;10.540;2023-12-20T06:28:57;5.40;99.90
16102;DHT22;56411;52.964;10.540;2023-12-20T06:31:24;5.40;99.90
16102;DHT22;56411;52.964;10.540;2023-12-20T06:33:51;5.30;99.90
16102;DHT22;56411;52.964;10.540;2023-12-20T06:36:23;5.40;99.90
16102;DHT22;56411;52.964;10.540;2023-12-20T06:38:50;5.40;99.90
16102;DHT22;56411;52.964;10.540;2023-12-20T06:41:18;5.30;99.90
16102;DHT22;56411;52.964;10.540;2023-12-20T06:43:46;5.40;99.90
16102;DHT22;56411;52.964;10.540;2023-12-20T06:46:13;5.30;99.90
16102;DHT22;56411;52.964;10.540;2023-12-20T06:48:40;5.30;99.90
16102;DHT22;56411;52.964;10.540;2023-12-20T06:51:11;5.30;99.90
16102;DHT22;56411;52.964;10.540;2023-12-20T06:53:39;5.30;99.90
16102;DHT22;56411;52.964;10.540;2023-12-20T06:56:06;5.30;99.90
16102;DHT22;56411;52.964;10.540;2023-12-20T06:58:35;5.40;99.90
16102;DHT22;56411;52.964;10.540;2023-12-20T07:01:03;5.40;99.90
16102;DHT22;56411;52.964;10.540;2023-12-20T07:03:30;5.30;99.90
16102;DHT22;56411;52.964;10.540;2023-12-20T07:05:58;5.30;99.90
16102;DHT22;56411;52.964;10.540;2023-12-20T07:08:25;5.30;99.90
16102;DHT22;56411;52.964;10.540;2023-12-20T07:10:52;5.30;99.90
16102;DHT22;56411;52.964;10.540;2023-12-20T07:13:19;5.30;99.90
16102;DHT22;56411;52.964;10.540;2023-12-20T07:15:49;5.30;99.90
16102;DHT22;56411;52.964;10.540;2023-12-20T07:18:16;5.30;99.90
16102;DHT22;56411;52.964;10.540;2023-12-20T07:20:43;5.30;99.90
16102;DHT22;56411;52.964;10.540;2023-12-20T07:23:10;5.30;99.90
16102;DHT22;56411;52.964;10.540;2023-12-20T07:25:37;5.30;99.90
16102;DHT22;56411;52.964;10.540;2023-12-20T07:28:04;5.30;99.90
16102;DHT22;56411;52.964;10.540;2023-12-20T07:30:32;5.40;99.90
16102;DHT22;56411;52.964;10.540;2023-12-20T07:33:00;5.40;99.90
16102;DHT22;56411;52.964;10.540;2023-12-20T07:35:28;5.40;99.90
16102;DHT22;56411;52.964;10.540;2023-12-20T07:37:55;5.40;99.90
16102;DHT22;56411;52.964;10.540;2023-12-20T07:40:22;5.30;99.90
16102;DHT22;56411;52.964;10.540;2023-12-20T07:42:49;5.30;99.90
16102;DHT22;56411;52.964;10.540;2023-12-20T07:45:16;5.30;99.90
16102;DHT22;56411;52.964;10.540;2023-12-20T07:47:43;5.20;99.90
16102;DHT22;56411;52.964;10.540;2023-12-20T07:50:12;5.30;99.90
16102;DHT22;56411;52.964;10.540;2023-12-20T07:52:39;5.30;99.90
16102;DHT22;56411;52.964;10.540;2023-12-20T07:55:07;5.30;99.90
16102;DHT22;56411;52.964;10.540;2023-12-20T07:57:34;5.40;99.90
16102;DHT22;56411;52.964;10.540;2023-12-20T08:00:02;5.40;99.90
16102;DHT22;56411;52.964;10.540;2023-12-20T08:02:29;5.40;99.90
16102;DHT22;56411;52.964;10.540;2023-12-20T08:04:57;5.40;99.90
16102;DHT22;56411;52.964;10.540;2023-12-20T08:07:25;5.40;99.90
16102;DHT22;56411;52.964;10.540;2023-12-20T08:09:52;5.40;99.90
16102;DHT22;56411;52.964;10.540;2023-12-20T08:12:20;5.40;99.90
16102;DHT22;56411;52.964;10.540;2023-12-20T08:14:47;5.50;99.90
16102;DHT22;56411;52.964;10.540;2023-12-20T08:17:14;5.50;99.90
16102;DHT22;56411;52.964;10.540;2023-12-20T08:19:44;5.50;99.90
16102;DHT22;56411;52.964;10.540;2023-12-20T08:22:11;5.50;99.90
16102;DHT22;56411;52.964;10.540;2023-12-20T08:24:40;5.50;99.90
16102;DHT22;56411;52.964;10.540;2023-12-20T08:27:07;5.50;99.90
16102;DHT22;56411;52.964;10.540;2023-12-20T08:29:35;5.50;99.90
16102;DHT22;56411;52.964;10.540;2023-12-20T08:32:02;5.50;99.90
16102;DHT22;56411;52.964;10.540;2023-12-20T08:34:30;5.50;99.90
16102;DHT22;56411;52.964;10.540;2023-12-20T08:36:57;5.50;99.90
16102;DHT22;56411;52.964;10.540;2023-12-20T08:39:24;5.50;99.90
16102;DHT22;56411;52.964;10.540;2023-12-20T08:41:52;5.50;99.90
16102;DHT22;56411;52.964;10.540;2023-12-20T08:44:19;5.50;99.90
16102;DHT22;56411;52.964;10.540;2023-12-20T08:46:48;5.50;99.90
16102;DHT22;56411;52.964;10.540;2023-12-20T08:49:15;5.50;99.90
16102;DHT22;56411;52.964;10.540;2023-12-20T08:51:42;5.60;99.90
16102;DHT22;56411;52.964;10.540;2023-12-20T08:54:09;5.60;99.90
16102;DHT22;56411;52.964;10.540;2023-12-20T08:56:38;5.60;99.90
16102;DHT22;56411;52.964;10.540;2023-12-20T08:59:07;5.60;99.90
16102;DHT22;56411;52.964;10.540;2023-12-20T09:01:35;5.70;99.90
16102;DHT22;56411;52.964;10.540;2023-12-20T09:04:02;5.80;99.90
16102;DHT22;56411;52.964;10.540;2023-12-20T09:06:29;5.80;99.90
16102;DHT22;56411;52.964;10.540;2023-12-20T09:08:56;5.80;99.90
16102;DHT22;56411;52.964;10.540;2023-12-20T09:11:23;5.80;99.90
16102;DHT22;56411;52.964;10.540;2023-12-20T09:13:50;5.80;99.90
16102;DHT22;56411;52.964;10.540;2023-12-20T09:16:19;5.90;99.90
16102;DHT22;56411;52.964;10.540;2023-12-20T09:18:46;5.90;99.90
16102;DHT22;56411;52.964;10.540;2023-12-20T09:21:13;5.80;99.90
16102;DHT22;56411;52.964;10.540;2023-12-20T09:23:40;5.90;99.90
16102;DHT22;56411;52.964;10.540;2023-12-20T09:26:08;5.90;99.90
16102;DHT22;56411;52.964;10.540;2023-12-20T09:28:35;5.90;99.90
16102;DHT22;56411;52.964;10.540;2023-12-20T09:31:04;6.00;99.90
16102;DHT22;56411;52.964;10.540;2023-12-20T09:33:33;6.10;99.90
16102;DHT22;56411;52.964;10.540;2023-12-20T09:36:01;6.10;99.90
16102;DHT22;56411;52.964;10.540;2023-12-20T09:38:28;6.20;99.90
16102;DHT22;56411;52.964;10.540;2023-12-20T09:40:55;6.20;99.90
16102;DHT22;56411;52.964;10.540;2023-12-20T09:43:24;6.20;99.90
16102;DHT22;56411;52.964;10.540;2023-12-20T09:45:54;6.10;99.90
16102;DHT22;56411;52.964;10.540;2023-12-20T09:48:26;6.10;99.90
16102;DHT22;56411;52.964;10.540;2023-12-20T09:50:56;6.10;99.90
16102;DHT22;56411;52.964;10.540;2023-12-20T09:53:25;6.10;99.90
16102;DHT22;56411;52.964;10.540;2023-12-20T09:55:56;6.10;99.90
16102;DHT22;56411;52.964;10.540;2023-12-20T09:58:24;6.10;99.90
16102;DHT22;56411;52.964;10.540;2023-12-20T10:00:53;6.20;99.90
16102;DHT22;56411;52.964;10.540;2023-12-20T10:03:24;6.20;99.90
16102;DHT22;56411;52.964;10.540;2023-12-20T10:05:53;6.10;99.90
16102;DHT22;56411;52.964;10.540;2023-12-20T10:08:22;6.00;99.90
16102;DHT22;56411;52.964;10.540;2023-12-20T10:10:50;5.90;99.90
16102;DHT22;56411;52.964;10.540;2023-12-20T10:13:17;5.90;99.90
16102;DHT22;56411;52.964;10.540;2023-12-20T10:15:45;5.80;99.90
16102;DHT22;56411;52.964;10.540;2023-12-20T10:18:12;5.80;99.90
16102;DHT22;56411;52.964;10.540;2023-12-20T10:20:41;5.80;99.90
16102;DHT22;56411;52.964;10.540;2023-12-20T10:23:08;5.70;99.90
16102;DHT22;56411;52.964;10.540;2023-12-20T10:25:37;5.70;99.90
16102;DHT22;56411;52.964;10.540;2023-12-20T10:28:12;5.70;99.90
16102;DHT22;56411;52.964;10.540;2023-12-20T10:30:40;5.70;99.90
16102;DHT22;56411;52.964;10.540;2023-12-20T10:33:07;5.60;99.90
16102;DHT22;56411;52.964;10.540;2023-12-20T10:35:34;5.60;99.90
16102;DHT22;56411;52.964;10.540;2023-12-20T10:38:04;5.60;99.90
16102;DHT22;56411;52.964;10.540;2023-12-20T10:40:34;5.60;99.90
16102;DHT22;56411;52.964;10.540;2023-12-20T10:43:04;5.60;99.90
16102;DHT22;56411;52.964;10.540;2023-12-20T10:45:32;5.60;99.90
16102;DHT22;56411;52.964;10.540;2023-12-20T10:48:00;5.50;99.90
16102;DHT22;56411;52.964;10.540;2023-12-20T10:50:28;5.40;99.90
16102;DHT22;56411;52.964;10.540;2023-12-20T10:52:56;5.30;99.90
16102;DHT22;56411;52.964;10.540;2023-12-20T10:55:23;5.20;99.90
16102;DHT22;56411;52.964;10.540;2023-12-20T10:57:51;5.10;99.90
16102;DHT22;56411;52.964;10.540;2023-12-20T11:00:21;5.10;99.90
16102;DHT22;56411;52.964;10.540;2023-12-20T11:02:49;5.00;99.90
16102;DHT22;56411;52.964;10.540;2023-12-20T11:05:26;5.00;99.90
16102;DHT22;56411;52.964;10.540;2023-12-20T11:08:02;4.90;99.90
16102;DHT22;56411;52.964;10.540;2023-12-20T11:10:49;4.90;99.90
16102;DHT22;56411;52.964;10.540;2023-12-20T11:13:21;4.80;99.90
16102;DHT22;56411;52.964;10.540;2023-12-20T11:15:51;4.80;99.90
16102;DHT22;56411;52.964;10.540;2023-12-20T11:18:18;4.70;99.90
16102;DHT22;56411;52.964;10.540;2023-12-20T11:20:45;4.70;99.90
16102;DHT22;56411;52.964;10.540;2023-12-20T11:23:13;4.70;99.90
16102;DHT22;56411;52.964;10.540;2023-12-20T11:25:48;4.60;99.90
16102;DHT22;56411;52.964;10.540;2023-12-20T11:28:16;4.60;99.90
16102;DHT22;56411;52.964;10.540;2023-12-20T11:30:48;4.60;99.90
16102;DHT22;56411;52.964;10.540;2023-12-20T11:33:21;4.60;99.90
16102;DHT22;56411;52.964;10.540;2023-12-20T11:35:48;4.60;99.90
16102;DHT22;56411;52.964;10.540;2023-12-20T11:38:15;4.60;99.90
16102;DHT22;56411;52.964;10.540;2023-12-20T11:40:43;4.70;99.90
16102;DHT22;56411;52.964;10.540;2023-12-20T11:43:10;4.80;99.90
16102;DHT22;56411;52.964;10.540;2023-12-20T11:45:37;4.90;99.90
16102;DHT22;56411;52.964;10.540;2023-12-20T11:48:06;5.00;99.90
16102;DHT22;56411;52.964;10.540;2023-12-20T11:50:35;5.10;99.90
16102;DHT22;56411;52.964;10.540;2023-12-20T11:53:03;5.10;99.90
16102;DHT22;56411;52.964;10.540;2023-12-20T11:55:30;5.10;99.90
16102;DHT22;56411;52.964;10.540;2023-12-20T11:57:57;5.10;99.90
16102;DHT22;56411;52.964;10.540;2023-12-20T12:00:25;5.10;99.90
16102;DHT22;56411;52.964;10.540;2023-12-20T12:02:56;5.10;99.90
16102;DHT22;56411;52.964;10.540;2023-12-20T12:05:24;5.20;99.90
16102;DHT22;56411;52.964;10.540;2023-12-20T12:07:53;5.30;99.90
16102;DHT22;56411;52.964;10.540;2023-12-20T12:10:20;5.60;99.90
16102;DHT22;56411;52.964;10.540;2023-12-20T12:12:47;6.10;99.90
16102;DHT22;56411;52.964;10.540;2023-12-20T12:15:15;6.40;99.90
16102;DHT22;56411;52.964;10.540;2023-12-20T12:17:42;6.90;99.90
16102;DHT22;56411;52.964;10.540;2023-12-20T12:20:09;7.30;99.90
16102;DHT22;56411;52.964;10.540;2023-12-20T12:22:37;7.60;99.90
16102;DHT22;56411;52.964;10.540;2023-12-20T12:25:13;7.60;99.90
16102;DHT22;56411;52.964;10.540;2023-12-20T12:27:40;7.60;99.90
16102;DHT22;56411;52.964;10.540;2023-12-20T12:30:09;7.40;99.90
16102;DHT22;56411;52.964;10.540;2023-12-20T12:32:38;7.40;99.90
16102;DHT22;56411;52.964;10.540;2023-12-20T12:35:08;7.50;99.90
16102;DHT22;56411;52.964;10.540;2023-12-20T12:37:38;7.30;99.90
16102;DHT22;56411;52.964;10.540;2023-12-20T12:40:06;7.30;99.90
16102;DHT22;56411;52.964;10.540;2023-12-20T12:42:34;7.40;99.90
16102;DHT22;56411;52.964;10.540;2023-12-20T12:45:02;7.40;99.90
16102;DHT22;56411;52.964;10.540;2023-12-20T12:47:29;7.10;99.90
16102;DHT22;56411;52.964;10.540;2023-12-20T12:49:56;6.90;99.90
16102;DHT22;56411;52.964;10.540;2023-12-20T12:52:23;6.60;99.90
16102;DHT22;56411;52.964;10.540;2023-12-20T12:54:52;6.40;99.90
16102;DHT22;56411;52.964;10.540;2023-12-20T12:57:20;6.40;99.90
16102;DHT22;56411;52.964;10.540;2023-12-20T12:59:49;6.50;99.90
16102;DHT22;56411;52.964;10.540;2023-12-20T13:02:16;6.80;99.90
16102;DHT22;56411;52.964;10.540;2023-12-20T13:04:44;7.10;99.90
16102;DHT22;56411;52.964;10.540;2023-12-20T13:07:11;7.10;99.90
16102;DHT22;56411;52.964;10.540;2023-12-20T13:09:40;7.10;99.90
16102;DHT22;56411;52.964;10.540;2023-12-20T13:12:08;6.90;99.90
16102;DHT22;56411;52.964;10.540;2023-12-20T13:14:35;7.10;99.90
16102;DHT22;56411;52.964;10.540;2023-12-20T13:17:05;7.10;99.90
16102;DHT22;56411;52.964;10.540;2023-12-20T13:19:32;7.10;99.90
16102;DHT22;56411;52.964;10.540;2023-12-20T13:21:59;7.00;99.90
16102;DHT22;56411;52.964;10.540;2023-12-20T13:24:26;7.00;99.90
16102;DHT22;56411;52.964;10.540;2023-12-20T13:26:55;7.10;99.90
16102;DHT22;56411;52.964;10.540;2023-12-20T13:29:22;6.80;99.90
16102;DHT22;56411;52.964;10.540;2023-12-20T13:31:49;6.40;99.90
16102;DHT22;56411;52.964;10.540;2023-12-20T13:34:18;6.10;99.90
16102;DHT22;56411;52.964;10.540;2023-12-20T13:36:45;6.00;99.90
16102;DHT22;56411;52.964;10.540;2023-12-20T13:39:13;5.90;99.90
16102;DHT22;56411;52.964;10.540;2023-12-20T13:41:40;6.00;99.90
16102;DHT22;56411;52.964;10.540;2023-12-20T13:44:08;6.20;99.90
16102;DHT22;56411;52.964;10.540;2023-12-20T13:46:36;6.40;99.90
16102;DHT22;56411;52.964;10.540;2023-12-20T13:49:03;6.70;99.90
16102;DHT22;56411;52.964;10.540;2023-12-20T13:51:32;6.60;99.90
16102;DHT22;56411;52.964;10.540;2023-12-20T13:53:59;6.40;99.90
16102;DHT22;56411;52.964;10.540;2023-12-20T13:56:26;6.20;99.90
16102;DHT22;56411;52.964;10.540;2023-12-20T13:58:53;6.40;99.90
16102;DHT22;56411;52.964;10.540;2023-12-20T14:01:20;6.60;99.90
16102;DHT22;56411;52.964;10.540;2023-12-20T14:03:47;6.60;99.90
16102;DHT22;56411;52.964;10.540;2023-12-20T14:06:15;6.50;99.90
16102;DHT22;56411;52.964;10.540;2023-12-20T14:08:45;6.30;99.90
16102;DHT22;56411;52.964;10.540;2023-12-20T14:11:12;6.20;99.90
16102;DHT22;56411;52.964;10.540;2023-12-20T14:13:41;6.10;99.90
16102;DHT22;56411;52.964;10.540;2023-12-20T14:16:09;5.90;99.90
16102;DHT22;56411;52.964;10.540;2023-12-20T14:18:36;5.80;99.90
16102;DHT22;56411;52.964;10.540;2023-12-20T14:21:03;5.60;99.90
16102;DHT22;56411;52.964;10.540;2023-12-20T14:23:31;5.50;99.90
16102;DHT22;56411;52.964;10.540;2023-12-20T14:26:00;5.50;99.90
16102;DHT22;56411;52.964;10.540;2023-12-20T14:28:28;5.40;99.90
16102;DHT22;56411;52.964;10.540;2023-12-20T14:30:55;5.40;99.90
16102;DHT22;56411;52.964;10.540;2023-12-20T14:33:22;5.40;99.90
16102;DHT22;56411;52.964;10.540;2023-12-20T14:35:50;5.40;99.90
16102;DHT22;56411;52.964;10.540;2023-12-20T14:38:17;5.30;99.90
16102;DHT22;56411;52.964;10.540;2023-12-20T14:40:45;5.30;99.90
16102;DHT22;56411;52.964;10.540;2023-12-20T14:43:14;5.30;99.90
16102;DHT22;56411;52.964;10.540;2023-12-20T14:45:42;5.30;99.90
16102;DHT22;56411;52.964;10.540;2023-12-20T14:48:09;5.20;99.90
16102;DHT22;56411;52.964;10.540;2023-12-20T14:50:35;5.20;99.90
16102;DHT22;56411;52.964;10.540;2023-12-20T14:53:03;5.20;99.90
16102;DHT22;56411;52.964;10.540;2023-12-20T14:55:30;5.10;99.90
16102;DHT22;56411;52.964;10.540;2023-12-20T14:57:57;5.10;99.90
16102;DHT22;56411;52.964;10.540;2023-12-20T15:00:26;5.10;99.90
16102;DHT22;56411;52.964;10.540;2023-12-20T15:02:53;5.10;99.90
16102;DHT22;56411;52.964;10.540;2023-12-20T15:05:20;5.00;99.90
16102;DHT22;56411;52.964;10.540;2023-12-20T15:07:47;4.90;99.90
16102;DHT22;56411;52.964;10.540;2023-12-20T15:10:15;4.90;99.90
16102;DHT22;56411;52.964;10.540;2023-12-20T15:12:42;4.90;99.90
16102;DHT22;56411;52.964;10.540;2023-12-20T15:15:10;4.90;99.90
16102;DHT22;56411;52.964;10.540;2023-12-20T15:17:39;4.80;99.90
16102;DHT22;56411;52.964;10.540;2023-12-20T15:20:07;4.80;99.90
16102;DHT22;56411;52.964;10.540;2023-12-20T15:22:35;4.80;99.90
16102;DHT22;56411;52.964;10.540;2023-12-20T15:25:04;4.80;99.90
16102;DHT22;56411;52.964;10.540;2023-12-20T15:27:33;4.80;99.90
16102;DHT22;56411;52.964;10.540;2023-12-20T15:30:01;4.80;99.90
16102;DHT22;56411;52.964;10.540;2023-12-20T15:32:28;4.80;99.90
16102;DHT22;56411;52.964;10.540;2023-12-20T15:34:58;4.80;99.90
16102;DHT22;56411;52.964;10.540;2023-12-20T15:37:25;4.80;99.90